Time;durP1;ratioP1;P1;durP2;ratioP2;P2;SDS_P1;SDS_P2;PMS_P1;PMS_P2;Temp;Humidity;BMP_temperature;BMP_pressure;BME280_temperature;BME280_humidity;BME280_pressure;Samples;Min_cycle;Max_cycle;Signal;HPM_P1;HPM_P2
2022/09/05 00:00:16;;;;;;;0.20;0.10;;;16.60;99.90;;;;;;5021461;28;20029;-87
2022/09/05 00:03:21;;;;;;;1.92;0.20;;;16.50;99.90;;;;;;5021095;28;20028;-86
2022/09/05 00:05:57;;;;;;;1.77;0.13;;;16.60;99.90;;;;;;5039035;28;20391;-87
2022/09/05 00:08:55;;;;;;;0.68;0.10;;;17.90;99.90;;;;;;5021469;28;20025;-86
2022/09/05 00:11:31;;;;;;;0.32;0.20;;;16.40;99.90;;;;;;5003509;28;20126;-88
2022/09/05 00:14:18;;;;;;;1.73;0.20;;;16.50;99.90;;;;;;5020630;28;20040;-88
2022/09/05 00:17:14;;;;;;;0.95;0.10;;;16.40;99.90;;;;;;5023289;28;20033;-87
2022/09/05 00:20:07;;;;;;;0.80;0.30;;;16.40;99.90;;;;;;5023754;28;20052;-87
2022/09/05 00:22:44;;;;;;;0.70;0.13;;;16.40;99.90;;;;;;5024419;28;20075;-87
2022/09/05 00:25:38;;;;;;;1.65;0.20;;;16.30;99.90;;;;;;5023173;28;20036;-87
2022/09/05 00:28:31;;;;;;;0.68;0.10;;;16.30;99.90;;;;;;5023046;28;20025;-86
2022/09/05 00:30:57;;;;;;;1.20;0.17;;;16.30;99.90;;;;;;5041238;28;20025;-87
2022/09/05 00:33:58;;;;;;;1.30;0.20;;;16.30;99.90;;;;;;5040636;28;20470;-87
2022/09/05 00:36:41;;;;;;;5.30;0.17;;;16.30;99.90;;;;;;4997760;28;20033;-87
2022/09/05 00:39:25;;;;;;;1.08;0.30;;;16.30;99.90;;;;;;5022291;28;20029;-87
2022/09/05 00:41:57;;;;;;;1.40;0.30;;;16.30;99.90;;;;;;5041608;28;20508;-88
2022/09/05 00:44:31;;;;;;;3.20;0.50;;;16.20;99.90;;;;;;5024181;28;20104;-88
2022/09/05 00:47:22;;;;;;;2.13;0.20;;;16.80;99.90;;;;;;5024278;28;20025;-88
2022/09/05 00:50:15;;;;;;;0.35;0.20;;;16.20;99.90;;;;;;5025117;28;20033;-88
2022/09/05 00:52:57;;;;;;;0.40;0.20;;;16.20;99.90;;;;;;5025626;28;20035;-87
2022/09/05 00:56:00;;;;;;;1.02;0.22;;;16.20;99.90;;;;;;5043106;28;20121;-87
2022/09/05 00:58:38;;;;;;;1.63;0.30;;;16.10;99.90;;;;;;5025468;28;20040;-88
2022/09/05 01:01:36;;;;;;;1.35;0.25;;;16.00;99.90;;;;;;5043589;28;20024;-87
2022/09/05 01:04:27;;;;;;;3.07;0.30;;;15.90;99.90;;;;;;5045003;28;20013;-85
2022/09/05 01:07:31;;;;;;;1.80;0.10;;;16.00;99.90;;;;;;5026599;28;20268;-88
2022/09/05 01:10:30;;;;;;;1.10;0.28;;;16.10;99.90;;;;;;5042760;28;20056;-88
2022/09/05 01:13:18;;;;;;;1.33;0.15;;;16.10;99.90;;;;;;5000535;28;20037;-87
2022/09/05 01:16:03;;;;;;;;;;;16.00;99.90;;;;;;5041774;28;20044;-88
2022/09/05 01:18:38;;;;;;;0.90;0.38;;;16.00;99.90;;;;;;5040919;28;19909;-88
2022/09/05 01:21:30;;;;;;;1.02;0.20;;;16.10;99.90;;;;;;5040883;28;20459;-88
2022/09/05 01:24:21;;;;;;;0.50;0.20;;;16.80;99.90;;;;;;5025341;28;20021;-87
2022/09/05 01:27:19;;;;;;;0.40;0.10;;;16.20;99.90;;;;;;5046240;28;20171;-87
2022/09/05 01:30:19;;;;;;;0.98;0.25;;;15.80;99.90;;;;;;5043636;28;20029;-85
2022/09/05 01:33:25;;;;;;;0.50;0.30;;;15.90;99.90;;;;;;5026609;28;20033;-86
2022/09/05 01:36:14;;;;;;;2.33;0.43;;;15.50;99.90;;;;;;5045029;28;20025;-87
2022/09/05 01:39:17;;;;;;;0.75;0.30;;;16.30;99.90;;;;;;5027104;28;20471;-86
2022/09/05 01:42:08;;;;;;;2.03;0.30;;;15.80;99.90;;;;;;5023801;28;20033;-85
2022/09/05 01:45:01;;;;;;;1.75;0.20;;;15.80;99.90;;;;;;5041363;28;20037;-87
2022/09/05 01:47:45;;;;;;;0.77;0.22;;;16.30;99.90;;;;;;5041077;28;20028;-85
2022/09/05 01:50:26;;;;;;;1.13;0.20;;;15.70;99.90;;;;;;5042241;28;20033;-85
2022/09/05 01:53:20;;;;;;;1.27;0.22;;;15.70;99.90;;;;;;5023890;28;20043;-87
2022/09/05 01:56:23;;;;;;;1.13;0.20;;;15.70;99.90;;;;;;5023794;28;20026;-85
2022/09/05 01:59:21;;;;;;;2.17;0.52;;;15.70;99.90;;;;;;5041221;28;20033;-85
2022/09/05 02:02:08;;;;;;;1.50;0.52;;;15.60;99.90;;;;;;5023067;28;20123;-85
2022/09/05 02:04:49;;;;;;;1.80;0.30;;;15.60;99.90;;;;;;5022791;28;20037;-86
2022/09/05 02:07:35;;;;;;;2.97;0.40;;;15.60;99.90;;;;;;5022406;28;20478;-85
2022/09/05 02:10:47;;;;;;;2.72;0.13;;;15.60;99.90;;;;;;5021662;28;20045;-86
2022/09/05 02:13:24;;;;;;;0.22;0.13;;;15.50;99.90;;;;;;5022214;28;20014;-85
2022/09/05 02:16:07;;;;;;;2.72;0.63;;;17.30;99.90;;;;;;5022161;28;20026;-87
2022/09/05 02:19:01;;;;;;;2.00;0.20;;;15.70;99.90;;;;;;5021844;28;20467;-86
2022/09/05 02:22:08;;;;;;;1.40;0.40;;;15.50;99.90;;;;;;5038720;28;20023;-86
2022/09/05 02:24:37;;;;;;;2.60;0.15;;;15.50;99.90;;;;;;5039147;28;20018;-86
2022/09/05 02:27:22;;;;;;;1.95;0.20;;;15.50;99.90;;;;;;5021918;28;20364;-86
2022/09/05 02:30:13;;;;;;;4.18;0.75;;;15.20;99.90;;;;;;5038730;28;20067;-85
2022/09/05 02:33:17;;;;;;;2.08;0.10;;;16.50;99.90;;;;;;5007462;28;20037;-86
2022/09/05 02:36:10;;;;;;;0.70;0.30;;;15.80;99.90;;;;;;5022680;28;20041;-87
2022/09/05 02:39:01;;;;;;;4.07;0.32;;;14.30;99.90;;;;;;5021232;28;20438;-87
2022/09/05 02:41:42;;;;;;;1.10;0.20;;;15.40;99.90;;;;;;5022571;28;20021;-88
2022/09/05 02:44:20;;;;;;;2.08;0.40;;;15.40;99.90;;;;;;5022838;28;20033;-88
2022/09/05 02:46:56;;;;;;;2.97;0.40;;;15.40;99.90;;;;;;5023536;28;20111;-88
2022/09/05 02:49:52;;;;;;;0.55;0.40;;;15.40;99.90;;;;;;5024286;28;20026;-87
2022/09/05 02:52:25;;;;;;;1.33;0.40;;;15.40;99.90;;;;;;5024385;28;20037;-88
2022/09/05 02:54:55;;;;;;;1.90;0.50;;;15.40;99.90;;;;;;5044638;28;20025;-87
2022/09/05 02:57:45;;;;;;;0.57;0.30;;;15.30;99.90;;;;;;5046745;28;20053;-86
2022/09/05 03:00:20;;;;;;;3.10;0.22;;;15.90;99.90;;;;;;5026562;28;20080;-87
2022/09/05 03:02:48;;;;;;;0.80;0.40;;;15.30;99.90;;;;;;5024532;28;20113;-87
2022/09/05 03:05:42;;;;;;;2.75;0.60;;;15.30;99.90;;;;;;5023566;28;20471;-85
2022/09/05 03:08:42;;;;;;;2.25;0.30;;;15.20;99.90;;;;;;5043798;28;20045;-88
2022/09/05 03:11:30;;;;;;;1.15;0.20;;;15.20;99.90;;;;;;5010951;28;20042;-88
2022/09/05 03:14:25;;;;;;;1.50;0.30;;;15.30;99.90;;;;;;5047227;28;20041;-88
2022/09/05 03:17:12;;;;;;;1.05;0.15;;;15.30;99.90;;;;;;5045996;28;20029;-87
2022/09/05 03:19:53;;;;;;;0.93;0.38;;;16.20;99.90;;;;;;5026542;28;20032;-87
2022/09/05 03:22:38;;;;;;;0.85;0.45;;;15.20;99.90;;;;;;5043950;28;20109;-87
2022/09/05 03:25:46;;;;;;;0.75;0.30;;;15.30;99.90;;;;;;5045077;28;20021;-86
2022/09/05 03:28:30;;;;;;;2.25;0.50;;;15.20;99.90;;;;;;5044528;28;20025;-87
2022/09/05 03:31:30;;;;;;;1.25;0.70;;;15.00;99.90;;;;;;5044496;28;20083;-88
2022/09/05 03:34:32;;;;;;;1.65;0.30;;;15.70;99.90;;;;;;5024358;28;20030;-87
2022/09/05 03:37:32;;;;;;;1.70;0.50;;;15.30;99.90;;;;;;5023536;28;20026;-87
2022/09/05 03:40:23;;;;;;;2.03;0.40;;;15.30;99.90;;;;;;5024221;28;20068;-88
2022/09/05 03:43:04;;;;;;;1.10;0.40;;;15.30;99.90;;;;;;5023521;28;20029;-86
2022/09/05 03:45:49;;;;;;;0.80;0.30;;;15.30;99.90;;;;;;5024310;28;20028;-87
2022/09/05 03:48:34;;;;;;;1.65;0.70;;;15.20;99.90;;;;;;5041654;28;20032;-87
2022/09/05 03:51:15;;;;;;;3.70;0.50;;;15.20;99.90;;;;;;5043077;28;20487;-87
2022/09/05 03:53:46;;;;;;;1.23;0.35;;;15.20;99.90;;;;;;5027359;28;20486;-87
2022/09/05 03:56:50;;;;;;;0.85;0.50;;;14.80;99.90;;;;;;5025951;28;20087;-87
2022/09/05 03:59:52;;;;;;;0.30;0.20;;;15.00;99.90;;;;;;5027636;28;20083;-87
2022/09/05 04:02:28;;;;;;;3.80;0.68;;;15.00;99.90;;;;;;5026956;28;20117;-87
2022/09/05 04:05:10;;;;;;;1.35;0.50;;;15.60;99.90;;;;;;5026777;28;20021;-87
2022/09/05 04:07:47;;;;;;;3.88;0.88;;;13.60;99.90;;;;;;5026499;28;20522;-87
2022/09/05 04:10:39;;;;;;;1.00;0.40;;;12.50;99.90;;;;;;5026121;28;20431;-87
2022/09/05 04:13:19;;;;;;;1.85;0.60;;;14.90;99.90;;;;;;5024660;28;20402;-86
2022/09/05 04:16:04;;;;;;;4.43;0.80;;;15.90;99.90;;;;;;5025653;28;20509;-86
2022/09/05 04:18:42;;;;;;;3.92;0.75;;;12.20;99.90;;;;;;5041810;28;20044;-86
2022/09/05 04:21:17;;;;;;;1.88;0.68;;;14.60;99.90;;;;;;5044088;28;20025;-87
2022/09/05 04:24:13;;;;;;;1.85;0.75;;;14.80;99.90;;;;;;5042400;28;20026;-87
2022/09/05 04:27:03;;;;;;;1.33;0.90;;;14.80;99.90;;;;;;5041361;28;20096;-87
2022/09/05 04:29:48;;;;;;;2.78;0.68;;;16.70;99.90;;;;;;5042976;28;20559;-87
2022/09/05 04:32:38;;;;;;;1.42;0.85;;;14.70;99.90;;;;;;5024876;28;20028;-86
2022/09/05 04:35:20;;;;;;;1.73;0.77;;;14.70;99.90;;;;;;5042875;28;20037;-88
2022/09/05 04:37:55;;;;;;;2.38;1.05;;;14.70;99.90;;;;;;5042733;28;20108;-87
2022/09/05 04:40:34;;;;;;;8.55;1.15;;;14.60;99.90;;;;;;5043822;28;20030;-87
2022/09/05 04:43:34;;;;;;;2.53;0.90;;;14.60;99.90;;;;;;5025296;28;20025;-88
2022/09/05 04:46:16;;;;;;;3.22;0.90;;;14.50;99.90;;;;;;5036520;28;20034;-88
2022/09/05 04:49:05;;;;;;;2.47;0.80;;;17.10;99.90;;;;;;5023954;28;20065;-88
2022/09/05 04:51:33;;;;;;;;;;;15.00;99.90;;;;;;5023995;28;20036;-87
2022/09/05 04:54:41;;;;;;;4.80;1.30;;;12.00;99.90;;;;;;5024091;28;19981;-88
2022/09/05 04:57:06;;;;;;;2.17;1.23;;;14.60;99.90;;;;;;5042626;28;20045;-87
2022/09/05 04:59:59;;;;;;;5.78;1.63;;;16.10;99.90;;;;;;5041934;28;20036;-88
2022/09/05 05:02:34;;;;;;;4.57;1.92;;;13.80;99.90;;;;;;5023420;28;20026;-87
2022/09/05 05:05:30;;;;;;;1.77;1.08;;;15.50;99.90;;;;;;5024491;28;20032;-87
2022/09/05 05:08:04;;;;;;;5.30;1.60;;;14.50;99.90;;;;;;5025269;28;20021;-87
2022/09/05 05:10:38;;;;;;;2.15;1.58;;;14.60;99.90;;;;;;5102695;22;20558;-75
2022/09/05 05:13:15;;;;;;;2.55;1.55;;;14.60;99.90;;;;;;5055847;28;20028;-75
2022/09/05 05:16:04;;;;;;;7.35;2.00;;;14.60;99.90;;;;;;5056349;28;20045;-75
2022/09/05 05:18:39;;;;;;;1.92;1.30;;;14.80;99.90;;;;;;5055597;28;20029;-76
2022/09/05 05:21:24;;;;;;;4.30;1.15;;;14.80;99.90;;;;;;5055337;28;20021;-76
2022/09/05 05:24:07;;;;;;;5.20;1.75;;;14.90;99.90;;;;;;5055147;28;20025;-74
2022/09/05 05:26:41;;;;;;;4.82;2.38;;;15.00;99.90;;;;;;5055295;28;20029;-74
2022/09/05 05:29:29;;;;;;;5.38;1.80;;;15.00;99.90;;;;;;5055110;28;20021;-75
2022/09/05 05:31:58;;;;;;;6.50;1.70;;;15.10;99.90;;;;;;5054535;28;20090;-75
2022/09/05 05:34:34;;;;;;;3.70;1.90;;;15.10;99.90;;;;;;5054628;28;20017;-74
2022/09/05 05:37:18;;;;;;;2.22;1.48;;;15.20;99.90;;;;;;5055221;28;20377;-74
2022/09/05 05:40:01;;;;;;;3.92;1.98;;;15.20;99.90;;;;;;5055042;28;20025;-75
2022/09/05 05:42:27;;;;;;;2.63;1.83;;;15.30;99.90;;;;;;5055640;28;20429;-75
2022/09/05 05:44:56;;;;;;;4.05;2.25;;;15.50;99.90;;;;;;5054804;28;20124;-74
2022/09/05 05:47:35;;;;;;;3.15;2.13;;;15.50;99.90;;;;;;5036892;28;20037;-74
2022/09/05 05:50:22;;;;;;;3.95;1.83;;;15.70;99.90;;;;;;5054602;28;20162;-74
2022/09/05 05:53:15;;;;;;;6.32;2.25;;;15.80;99.90;;;;;;5054729;28;20482;-75
2022/09/05 05:55:56;;;;;;;5.80;2.00;;;15.90;99.90;;;;;;5054399;28;20037;-75
2022/09/05 05:58:45;;;;;;;7.78;2.53;;;16.00;99.90;;;;;;5036520;28;20082;-75
2022/09/05 06:01:38;;;;;;;4.88;2.03;;;16.10;99.90;;;;;;5054545;28;20067;-75
2022/09/05 06:04:35;;;;;;;6.07;2.40;;;16.20;99.90;;;;;;5054621;28;20021;-76
2022/09/05 06:07:27;;;;;;;9.10;3.00;;;16.30;99.90;;;;;;5052377;28;20040;-76
2022/09/05 06:10:04;;;;;;;5.50;2.58;;;16.50;99.90;;;;;;5025446;28;20037;-75
2022/09/05 06:13:10;;;;;;;3.45;2.28;;;16.70;99.90;;;;;;5036530;28;20541;-72
2022/09/05 06:16:19;;;;;;;3.60;1.73;;;16.90;99.90;;;;;;4996561;28;20086;-76
2022/09/05 06:18:54;;;;;;;3.40;1.70;;;17.20;99.90;;;;;;5054598;28;20071;-75
2022/09/05 06:21:40;;;;;;;4.35;1.85;;;17.40;99.90;;;;;;5053529;28;20111;-75
2022/09/05 06:24:30;;;;;;;3.28;1.45;;;17.50;99.90;;;;;;5054227;28;20092;-74
2022/09/05 06:27:41;;;;;;;3.33;1.75;;;17.60;99.90;;;;;;5054113;28;20485;-75
2022/09/05 06:30:29;;;;;;;5.13;1.90;;;17.80;99.90;;;;;;5023002;28;20041;-72
2022/09/05 06:33:21;;;;;;;5.07;1.98;;;18.00;99.90;;;;;;5053045;28;20401;-72
2022/09/05 06:36:06;;;;;;;6.95;2.47;;;18.10;99.90;;;;;;5053855;28;20052;-72
2022/09/05 06:38:46;;;;;;;4.25;1.85;;;18.30;99.90;;;;;;5054185;28;20025;-72
2022/09/05 06:41:37;;;;;;;6.43;2.00;;;18.60;99.90;;;;;;5054199;28;20032;-72
2022/09/05 06:44:03;;;;;;;5.50;2.10;;;18.80;99.90;;;;;;5053810;28;20474;-73
2022/09/05 06:46:37;;;;;;;3.65;2.15;;;18.90;99.90;;;;;;5054195;28;20032;-72
2022/09/05 06:49:26;;;;;;;5.40;2.60;;;19.20;99.90;;;;;;5053421;28;20159;-72
2022/09/05 06:52:03;;;;;;;5.40;2.10;;;19.40;99.90;;;;;;5053625;28;20635;-72
2022/09/05 06:55:11;;;;;;;4.10;2.08;;;19.60;99.90;;;;;;5053860;28;20021;-73
2022/09/05 06:57:50;;;;;;;4.37;2.33;;;19.70;99.90;;;;;;5042272;28;20041;-72
2022/09/05 07:00:29;;;;;;;7.82;2.28;;;19.80;99.90;;;;;;5035493;28;20475;-72
2022/09/05 07:03:17;;;;;;;4.95;2.53;;;20.00;99.90;;;;;;5035444;28;20029;-73
2022/09/05 07:05:51;;;;;;;8.55;2.40;;;20.10;99.90;;;;;;5053764;28;20347;-72
2022/09/05 07:08:55;;;;;;;4.55;2.60;;;20.20;99.90;;;;;;5053745;28;20021;-72
2022/09/05 07:11:24;;;;;;;7.20;2.75;;;20.30;99.90;;;;;;5009154;28;20049;-73
2022/09/05 07:14:03;;;;;;;6.20;2.33;;;20.40;99.90;;;;;;5053506;28;20021;-72
2022/09/05 07:16:47;;;;;;;4.32;2.05;;;20.50;99.90;;;;;;5053217;28;20111;-73
2022/09/05 07:19:28;;;;;;;4.28;2.60;;;20.50;99.90;;;;;;5053186;28;20025;-72
2022/09/05 07:22:00;;;;;;;3.83;2.30;;;20.60;99.90;;;;;;5053152;28;20025;-73
2022/09/05 07:24:27;;;;;;;4.07;2.25;;;20.70;99.90;;;;;;5035327;28;20477;-73
2022/09/05 07:26:57;;;;;;;4.28;1.92;;;20.70;99.90;;;;;;5056364;28;20029;-72
2022/09/05 07:29:31;;;;;;;4.00;2.63;;;20.90;99.90;;;;;;5057434;28;20029;-72
2022/09/05 07:31:59;;;;;;;4.72;2.08;;;21.00;99.90;;;;;;5057177;28;20028;-72
2022/09/05 07:34:30;;;;;;;4.17;1.70;;;21.20;99.90;;;;;;5056990;28;20363;-73
2022/09/05 07:37:18;;;;;;;6.18;2.63;;;21.40;99.90;;;;;;5039101;28;20565;-73
2022/09/05 07:39:58;;;;;;;3.13;1.75;;;21.70;99.90;;;;;;5039061;28;20063;-72
2022/09/05 07:42:48;;;;;;;2.70;1.30;;;21.80;99.90;;;;;;5039063;28;20082;-72
2022/09/05 07:45:23;;;;;;;3.30;1.60;;;22.00;99.90;;;;;;5056754;28;20029;-72
2022/09/05 07:48:01;;;;;;;2.17;1.20;;;22.20;99.90;;;;;;5056798;28;20028;-72
2022/09/05 07:50:28;;;;;;;3.08;1.70;;;22.30;99.90;;;;;;5057445;28;20024;-72
2022/09/05 07:52:57;;;;;;;5.18;1.10;;;22.50;99.90;;;;;;5038768;28;20032;-72
2022/09/05 07:55:30;;;;;;;3.38;1.73;;;22.60;99.90;;;;;;5056964;28;20029;-72
2022/09/05 07:58:00;;;;;;;5.97;1.17;;;22.80;99.90;;;;;;5056797;28;20111;-71
2022/09/05 08:00:28;;;;;;;3.10;1.75;;;22.90;99.90;;;;;;5056587;28;20036;-72
2022/09/05 08:02:56;;;;;;;7.80;1.30;;;23.00;99.90;;;;;;5056427;28;20056;-73
2022/09/05 08:05:26;;;;;;;2.75;1.05;;;23.20;99.90;;;;;;5056477;28;20032;-72
2022/09/05 08:08:01;;;;;;;2.47;0.80;;;23.40;99.90;;;;;;5038565;28;20072;-72
2022/09/05 08:10:35;;;;;;;7.13;1.17;;;23.50;99.90;;;;;;5056288;28;20035;-72
2022/09/05 08:13:07;;;;;;;2.15;1.00;;;23.60;99.30;;;;;;5056688;28;20039;-72
2022/09/05 08:15:34;;;;;;;4.25;0.90;;;23.80;99.20;;;;;;5056138;28;20025;-72
2022/09/05 08:18:35;;;;;;;5.05;0.75;;;23.80;99.00;;;;;;5056806;28;20464;-72
2022/09/05 08:21:28;;;;;;;3.33;1.15;;;23.90;99.10;;;;;;5038396;28;20029;-71
2022/09/05 08:24:08;;;;;;;3.28;0.80;;;24.00;98.50;;;;;;5056089;28;20029;-72
2022/09/05 08:26:40;;;;;;;1.48;0.50;;;24.10;98.10;;;;;;5038114;28;20083;-72
2022/09/05 08:29:16;;;;;;;3.10;0.90;;;24.30;97.90;;;;;;5056059;28;20021;-72
2022/09/05 08:31:51;;;;;;;1.10;0.50;;;24.40;97.00;;;;;;5038163;28;20036;-72
2022/09/05 08:34:23;;;;;;;3.05;0.55;;;24.50;97.30;;;;;;5056122;28;20024;-72
2022/09/05 08:36:50;;;;;;;2.63;0.60;;;24.60;96.40;;;;;;5055645;28;20021;-72
2022/09/05 08:39:21;;;;;;;4.97;0.35;;;24.70;95.70;;;;;;5055844;28;20505;-73
2022/09/05 08:41:50;;;;;;;3.03;0.38;;;24.90;95.50;;;;;;5056326;28;20025;-72
2022/09/05 08:44:29;;;;;;;2.08;0.75;;;25.00;94.60;;;;;;5055650;28;20470;-72
2022/09/05 08:47:17;;;;;;;2.92;0.77;;;25.20;94.10;;;;;;5056041;28;20055;-72
2022/09/05 08:50:11;;;;;;;1.27;0.50;;;25.30;93.40;;;;;;5055861;28;20028;-72
2022/09/05 08:52:37;;;;;;;2.40;0.75;;;25.50;93.30;;;;;;5024886;28;20041;-72
2022/09/05 08:55:29;;;;;;;2.38;0.47;;;25.60;92.50;;;;;;5055851;28;20067;-72
2022/09/05 08:58:16;;;;;;;1.15;0.40;;;25.70;92.30;;;;;;5037450;28;20033;-73
2022/09/05 09:00:51;;;;;;;1.90;0.52;;;25.80;91.70;;;;;;5055910;28;20029;-76
2022/09/05 09:03:33;;;;;;;7.13;0.10;;;25.70;92.10;;;;;;5037670;28;20029;-74
2022/09/05 09:06:22;;;;;;;0.90;0.08;;;25.70;91.00;;;;;;5055508;28;20434;-75
2022/09/05 09:09:06;;;;;;;1.85;0.15;;;25.80;90.90;;;;;;5055409;28;20017;-75
2022/09/05 09:11:39;;;;;;;4.43;0.20;;;25.90;90.40;;;;;;5055333;28;20037;-74
2022/09/05 09:14:32;;;;;;;1.58;0.03;;;26.00;89.20;;;;;;5037405;28;20035;-75
2022/09/05 09:17:02;;;;;;;1.35;0.15;;;26.00;87.80;;;;;;5037250;28;20021;-73
2022/09/05 09:19:49;;;;;;;1.92;0.10;;;26.10;89.10;;;;;;5055630;28;20367;-74
2022/09/05 09:22:32;;;;;;;2.17;0.00;;;26.20;88.00;;;;;;5056073;28;20100;-74
2022/09/05 09:25:12;;;;;;;1.10;0.10;;;26.40;86.70;;;;;;5037297;28;20017;-75
2022/09/05 09:27:50;;;;;;;1.95;0.05;;;26.60;85.60;;;;;;5037311;28;20074;-75
2022/09/05 09:30:17;;;;;;;2.08;0.25;;;26.80;83.50;;;;;;5055644;28;20029;-74
2022/09/05 09:32:48;;;;;;;3.55;0.65;;;26.80;83.30;;;;;;5055083;28;20097;-74
2022/09/05 09:35:24;;;;;;;0.55;0.00;;;26.90;82.30;;;;;;5055165;28;20021;-74
2022/09/05 09:38:26;;;;;;;3.35;0.00;;;27.10;81.70;;;;;;5055354;28;20052;-75
2022/09/05 09:41:18;;;;;;;1.13;0.00;;;27.20;81.10;;;;;;5054711;28;20032;-75
2022/09/05 09:44:05;;;;;;;0.68;0.40;;;27.40;80.40;;;;;;5054717;28;20017;-75
2022/09/05 09:46:46;;;;;;;2.40;0.00;;;27.50;79.90;;;;;;5036809;28;20044;-75
2022/09/05 09:49:51;;;;;;;0.20;0.00;;;27.60;77.50;;;;;;5053908;28;20474;-75
2022/09/05 09:52:29;;;;;;;0.85;0.00;;;27.70;75.20;;;;;;5055186;28;20489;-75
2022/09/05 09:55:28;;;;;;;0.35;0.00;;;27.70;75.90;;;;;;5054669;28;20497;-74
2022/09/05 09:58:27;;;;;;;0.30;0.00;;;27.90;73.90;;;;;;5036925;28;20033;-75
2022/09/05 10:01:31;;;;;;;3.30;0.38;;;28.00;71.90;;;;;;5017172;28;20082;-75
2022/09/05 10:04:24;;;;;;;1.15;0.25;;;28.00;71.10;;;;;;5054362;28;20086;-75
2022/09/05 10:06:56;;;;;;;0.10;0.00;;;28.10;70.80;;;;;;5055000;28;20021;-75
2022/09/05 10:09:34;;;;;;;1.83;0.10;;;28.20;68.60;;;;;;5054614;28;20029;-74
2022/09/05 10:12:18;;;;;;;1.08;0.00;;;28.30;69.40;;;;;;5054243;28;20041;-75
2022/09/05 10:15:05;;;;;;;1.80;0.00;;;28.40;67.40;;;;;;5054650;28;20470;-75
2022/09/05 10:17:51;;;;;;;2.20;0.00;;;28.90;67.00;;;;;;5054187;28;20064;-72
2022/09/05 10:20:44;;;;;;;0.20;0.03;;;28.60;67.90;;;;;;5054747;28;20028;-73
2022/09/05 10:23:09;;;;;;;1.67;0.10;;;28.70;65.60;;;;;;5054086;28;20032;-72
2022/09/05 10:25:56;;;;;;;1.13;0.20;;;28.80;67.00;;;;;;5035779;28;20115;-73
2022/09/05 10:28:43;;;;;;;2.85;0.00;;;28.90;66.50;;;;;;5054295;28;20032;-72
2022/09/05 10:31:29;;;;;;;2.80;0.00;;;28.90;65.50;;;;;;5054022;28;20040;-72
2022/09/05 10:34:01;;;;;;;0.95;0.00;;;29.10;65.00;;;;;;5035967;28;20494;-73
2022/09/05 10:36:31;;;;;;;1.52;0.00;;;29.20;64.10;;;;;;5053701;28;20021;-73
2022/09/05 10:39:19;;;;;;;0.10;0.00;;;29.10;62.50;;;;;;5054562;28;20025;-73
2022/09/05 10:41:56;;;;;;;0.40;0.00;;;29.10;61.90;;;;;;5054274;28;20021;-73
2022/09/05 10:44:47;;;;;;;2.78;0.00;;;28.90;62.80;;;;;;5053973;28;20029;-74
2022/09/05 10:47:26;;;;;;;1.38;0.30;;;28.80;63.60;;;;;;5035985;28;20037;-73
2022/09/05 10:50:22;;;;;;;0.98;0.10;;;28.90;63.90;;;;;;5054547;28;20024;-73
2022/09/05 10:53:15;;;;;;;4.05;0.10;;;28.60;62.90;;;;;;5053869;28;20025;-73
2022/09/05 10:56:07;;;;;;;0.43;0.00;;;28.70;62.70;;;;;;5053589;28;20477;-73
2022/09/05 10:58:47;;;;;;;2.03;0.15;;;28.90;62.80;;;;;;5053606;28;20029;-72
2022/09/05 11:01:40;;;;;;;0.85;0.30;;;29.10;62.20;;;;;;5054187;28;20024;-73
2022/09/05 11:04:25;;;;;;;1.27;0.00;;;29.30;60.50;;;;;;5053442;28;20056;-73
2022/09/05 11:07:15;;;;;;;4.97;0.00;;;29.50;61.30;;;;;;5035638;28;20025;-73
2022/09/05 11:10:20;;;;;;;0.95;0.20;;;29.90;61.40;;;;;;5016228;28;20045;-73
2022/09/05 11:13:04;;;;;;;0.35;0.00;;;30.00;57.00;;;;;;5053969;28;20136;-74
2022/09/05 11:15:50;;;;;;;0.47;0.10;;;30.20;57.80;;;;;;5036138;28;20017;-73
2022/09/05 11:18:32;;;;;;;1.63;0.13;;;30.40;57.90;;;;;;5053647;28;20021;-72
2022/09/05 11:21:10;;;;;;;0.35;0.22;;;30.50;55.20;;;;;;5053593;28;20474;-74
2022/09/05 11:23:42;;;;;;;0.80;0.00;;;30.50;54.90;;;;;;5053274;28;20028;-73
2022/09/05 11:26:34;;;;;;;1.55;0.00;;;30.70;55.70;;;;;;5053633;28;20017;-73
2022/09/05 11:29:14;;;;;;;0.85;0.08;;;31.00;56.00;;;;;;5035882;28;20029;-73
2022/09/05 11:32:09;;;;;;;0.40;0.00;;;31.30;54.70;;;;;;5053305;28;20017;-73
2022/09/05 11:34:50;;;;;;;2.35;0.10;;;31.50;53.90;;;;;;5053516;28;20398;-74
2022/09/05 11:37:45;;;;;;;0.98;0.00;;;31.70;52.00;;;;;;5053406;28;20049;-73
2022/09/05 11:40:30;;;;;;;0.50;0.10;;;31.70;51.50;;;;;;5042259;28;20041;-73
2022/09/05 11:43:07;;;;;;;0.15;0.00;;;31.80;51.30;;;;;;5053386;28;20029;-73
2022/09/05 11:45:47;;;;;;;1.77;0.20;;;31.70;51.30;;;;;;5053109;28;20104;-73
2022/09/05 11:48:16;;;;;;;0.85;0.00;;;31.60;51.70;;;;;;5053363;28;20482;-73
2022/09/05 11:50:54;;;;;;;1.02;0.00;;;31.40;51.70;;;;;;5053692;28;20032;-73
2022/09/05 11:53:54;;;;;;;0.10;0.00;;;31.20;52.10;;;;;;5053123;28;20017;-74
2022/09/05 11:56:50;;;;;;;2.45;0.13;;;31.00;52.10;;;;;;5053168;28;20083;-72
2022/09/05 11:59:24;;;;;;;2.50;0.00;;;31.20;52.90;;;;;;5053113;28;20512;-73
2022/09/05 12:02:37;;;;;;;1.65;0.00;;;31.50;51.70;;;;;;5052907;28;20433;-72
2022/09/05 12:05:21;;;;;;;0.77;0.43;;;31.70;52.70;;;;;;5052975;28;20035;-73
2022/09/05 12:07:50;;;;;;;0.57;0.00;;;31.80;50.50;;;;;;5035088;28;20398;-73
2022/09/05 12:10:26;;;;;;;0.73;0.10;;;31.90;49.40;;;;;;5052640;28;20021;-74
2022/09/05 12:13:13;;;;;;;0.43;0.00;;;32.10;50.20;;;;;;5055690;28;20025;-73
2022/09/05 12:15:44;;;;;;;1.08;0.00;;;31.90;49.70;;;;;;5056528;28;20029;-74
2022/09/05 12:18:34;;;;;;;1.10;0.00;;;32.30;51.20;;;;;;5056598;28;20104;-74
2022/09/05 12:21:24;;;;;;;1.85;0.00;;;32.70;49.50;;;;;;5038764;28;20429;-72
2022/09/05 12:24:14;;;;;;;0.55;0.00;;;33.10;48.00;;;;;;5056097;28;20025;-73
2022/09/05 12:27:01;;;;;;;2.85;0.28;;;32.70;48.90;;;;;;5056157;28;20335;-73
2022/09/05 12:29:32;;;;;;;1.75;0.00;;;32.30;49.10;;;;;;5038045;28;20028;-73
2022/09/05 12:31:59;;;;;;;0.00;0.00;;;32.00;48.90;;;;;;5038273;28;20017;-74
2022/09/05 12:34:48;;;;;;;0.30;0.00;;;31.80;49.10;;;;;;5056494;28;20032;-74
2022/09/05 12:37:17;;;;;;;0.90;0.00;;;31.60;49.70;;;;;;5056369;28;20603;-73
2022/09/05 12:39:48;;;;;;;0.75;0.00;;;31.80;51.10;;;;;;5038019;28;20017;-73
2022/09/05 12:42:36;;;;;;;1.17;0.00;;;32.30;49.40;;;;;;5056394;28;20474;-73
2022/09/05 12:45:44;;;;;;;1.77;0.00;;;32.70;48.60;;;;;;5055691;28;20473;-73
2022/09/05 12:48:23;;;;;;;0.43;0.10;;;33.30;47.70;;;;;;5038135;28;20036;-73
2022/09/05 12:51:03;;;;;;;0.47;0.00;;;33.80;47.70;;;;;;5037973;28;20017;-73
2022/09/05 12:53:54;;;;;;;0.10;0.00;;;34.10;46.40;;;;;;5055790;28;20029;-74
2022/09/05 12:56:37;;;;;;;0.47;0.00;;;34.40;45.10;;;;;;5056497;28;20096;-75
2022/09/05 12:59:05;;;;;;;1.77;0.00;;;34.50;46.00;;;;;;5037691;28;20075;-75
2022/09/05 13:01:45;;;;;;;0.30;0.00;;;34.30;44.60;;;;;;5055832;28;20075;-74
2022/09/05 13:04:21;;;;;;;1.90;0.00;;;33.90;46.90;;;;;;5055522;28;20049;-74
2022/09/05 13:06:55;;;;;;;2.08;0.00;;;33.60;46.90;;;;;;5037589;28;20390;-75
2022/09/05 13:09:32;;;;;;;0.95;0.00;;;33.60;47.60;;;;;;5055343;28;20108;-72
2022/09/05 13:12:07;;;;;;;6.10;0.20;;;33.50;45.90;;;;;;5055394;28;20087;-73
2022/09/05 13:15:04;;;;;;;1.55;0.08;;;33.30;47.00;;;;;;5055763;28;20021;-73
2022/09/05 13:17:37;;;;;;;5.72;0.00;;;33.10;47.20;;;;;;5037358;28;20020;-73
2022/09/05 13:20:08;;;;;;;0.15;0.00;;;32.90;46.70;;;;;;5055533;28;20085;-75
2022/09/05 13:22:37;;;;;;;0.00;0.00;;;32.70;47.80;;;;;;5054463;28;20021;-75
2022/09/05 13:25:08;;;;;;;2.20;0.00;;;32.50;47.50;;;;;;5054459;28;20029;-74
2022/09/05 13:27:45;;;;;;;2.28;0.00;;;32.50;48.70;;;;;;5054851;28;20036;-74
2022/09/05 13:30:13;;;;;;;1.35;0.00;;;32.40;49.90;;;;;;5055277;28;20079;-75
2022/09/05 13:32:46;;;;;;;1.50;0.00;;;32.40;48.50;;;;;;5055024;28;20032;-74
2022/09/05 13:35:21;;;;;;;0.20;0.00;;;32.50;48.90;;;;;;5037293;28;20021;-75
2022/09/05 13:38:03;;;;;;;0.05;0.00;;;32.40;47.40;;;;;;5036869;28;20542;-75
2022/09/05 13:40:48;;;;;;;0.30;0.00;;;32.40;48.10;;;;;;5037097;28;20079;-75
2022/09/05 13:43:37;;;;;;;1.98;0.00;;;32.40;48.30;;;;;;5037587;28;20099;-74
2022/09/05 13:46:23;;;;;;;0.30;0.10;;;32.50;47.70;;;;;;5055229;28;20071;-75
2022/09/05 13:49:09;;;;;;;2.22;0.00;;;32.40;47.40;;;;;;5054894;28;20025;-74
2022/09/05 13:51:43;;;;;;;0.08;0.00;;;32.20;47.10;;;;;;5036807;28;20051;-74
2022/09/05 13:54:43;;;;;;;0.90;0.00;;;32.00;48.10;;;;;;5054753;28;20031;-74
2022/09/05 13:57:30;;;;;;;1.58;0.00;;;31.90;48.10;;;;;;5036787;28;20021;-72
2022/09/05 14:00:21;;;;;;;2.38;0.35;;;31.80;48.60;;;;;;5054688;28;20045;-74
2022/09/05 14:03:21;;;;;;;0.77;0.00;;;31.70;48.40;;;;;;5055151;28;20020;-75
2022/09/05 14:05:53;;;;;;;3.70;0.00;;;31.50;49.10;;;;;;5054328;28;20025;-75
2022/09/05 14:08:32;;;;;;;2.00;0.00;;;31.40;50.20;;;;;;5054246;28;20033;-74
2022/09/05 14:11:26;;;;;;;0.00;0.00;;;31.40;48.90;;;;;;5036354;28;20051;-74
2022/09/05 14:14:09;;;;;;;0.70;0.00;;;31.30;49.00;;;;;;5054001;28;20427;-73